Latest Weather Observations for Cape Moreton

IDQ60901

Issued at 6:21 pm EST Friday 28 April 2017 (issued every 10 minutes, with the page automatically refreshed every 10 minutes)

About weather observations | Map of Brisbane area stations | Latest observations for Brisbane area | Other Formats
Station Details ID: 040043 Name: CAPE MORETON LIGHTHOUSE Lat: -27.03 Lon: 153.47 Height: 99.9 m
Data from the previous 72 hours. | See also: Recent months at Cape Moreton
Date/Time
EST
Temp
°C
App
Temp
°C
Dew
Point
°C
Rel
Hum
%
Delta-T
°C
Wind Press
QNH
hPa
Press
MSL
hPa
Rain since
9am
mm
Dir  Spd
km/h
Gust
km/h
Spd
kts
Gust
kts
28/06:00pm 20.0 15.2 13.0 64 4.0 SSW 30 44 16 24 1015.6 1015.2 0.0
28/05:30pm 20.0 15.2 13.0 64 4.0 SSW 30 43 16 23 1015.3 1014.9 0.0
28/05:00pm 20.3 14.9 12.3 60 4.5 SSW 32 43 17 23 1015.0 1014.6 0.0
28/04:30pm 20.7 15.1 13.2 62 4.3 S 35 48 19 26 1014.7 1014.3 0.0
28/04:00pm 21.1 15.6 12.5 58 4.9 S 33 44 18 24 1014.4 1014.0 0.0
28/03:30pm 21.3 18.6 13.5 61 4.5 S 20 30 11 16 1014.5 1014.1 0.0
28/03:00pm 21.0 15.7 13.2 61 4.5 SSE 33 44 18 24 1014.4 1014.0 0.0
28/02:30pm 21.4 17.4 13.1 59 4.8 SSE 26 35 14 19 1014.2 1013.8 0.0
28/02:00pm 21.6 18.6 12.5 56 5.2 S 20 30 11 16 1014.3 1013.9 0.0
28/01:30pm 21.5 17.5 11.8 54 5.4 S 24 33 13 18 1014.4 1014.0 0.0
28/01:00pm 21.6 18.2 12.5 56 5.2 S 22 33 12 18 1014.7 1014.3 0.0
28/12:30pm 21.5 18.2 11.5 53 5.6 S 20 28 11 15 1014.9 1014.5 0.0
28/12:00pm 21.1 17.6 10.9 52 5.6 S 20 30 11 16 1015.0 1014.6 0.0
28/11:30am 21.2 18.0 11.8 55 5.3 S 20 33 11 18 1015.5 1015.1 0.0
28/11:00am 20.1 15.4 10.8 55 5.1 S 26 41 14 22 1015.7 1015.3 0.0
28/10:30am 19.6 14.3 11.1 58 4.7 S 30 43 16 23 1015.9 1015.5 0.0
28/10:00am 19.6 14.3 10.0 54 5.2 S 28 41 15 22 1016.2 1015.8 0.0
28/09:30am 19.3 14.6 9.2 52 5.3 SSW 24 39 13 21 1016.3 1015.9 0.0
28/09:00am 19.1 15.2 9.6 54 5.0 SW 20 32 11 17 1016.4 1016.0 0.0
28/08:30am 18.3 14.8 10.2 59 4.3 SW 19 30 10 16 1016.5 1016.1 0.0
28/08:00am 16.9 12.0 10.1 64 3.6 SW 26 35 14 19 1016.1 1015.7 0.0
28/07:30am 15.6 11.8 9.9 69 3.0 SW 20 28 11 15 1015.9 1015.5 0.0
28/07:00am 15.2 11.1 10.0 71 2.7 SW 22 33 12 18 1015.5 1015.1 0.0
28/06:30am 15.2 11.0 9.8 70 2.8 SW 22 33 12 18 1015.0 1014.6 0.0
28/06:00am 15.5 10.9 9.8 69 3.0 SW 24 35 13 19 1014.6 1014.2 0.0
28/05:30am 15.3 11.1 9.9 70 2.8 SW 22 32 12 17 1014.0 1013.6 0.0
28/05:00am 14.7 10.1 9.5 71 2.7 SW 24 30 13 16 1013.6 1013.2 0.0
28/04:30am 14.4 10.5 9.4 72 2.6 SW 20 24 11 13 1013.6 1013.2 0.0
28/04:00am 14.6 10.0 9.6 72 2.6 SW 24 30 13 16 1013.4 1013.0 0.0
28/03:30am 14.6 9.9 9.4 71 2.7 SW 24 32 13 17 1013.4 1013.0 0.0
28/03:00am 14.8 9.8 9.4 70 2.8 SW 26 35 14 19 1013.3 1012.9 0.0
28/02:30am 15.0 10.0 9.4 69 2.9 SW 26 33 14 18 1013.5 1013.1 0.0
28/02:00am 15.4 10.3 9.3 67 3.2 SW 26 35 14 19 1013.7 1013.3 0.0
28/01:30am 15.6 11.3 9.5 67 3.2 SW 22 32 12 17 1014.2 1013.8 0.0
28/01:00am 15.6 10.9 9.3 66 3.3 SW 24 35 13 19 1014.5 1014.1 0.0
28/12:30am 15.4 10.7 9.3 67 3.2 SW 24 37 13 20 1014.5 1014.1 0.0
28/12:00am 15.6 10.5 9.1 65 3.4 SW 26 39 14 21 1014.6 1014.2 0.0
 
Date/Time
EST
Temp
°C
App
Temp
°C
Dew
Point
°C
Rel
Hum
%
Delta-T
°C
Wind Press
QNH
hPa
Press
MSL
hPa
Rain since
9am
mm
Dir  Spd
km/h
Gust
km/h
Spd
kts
Gust
kts
27/11:30pm 15.5 10.3 9.0 65 3.3 SW 26 37 14 20 1014.6 1014.2 0.0
27/11:00pm 15.7 10.5 8.7 63 3.6 SW 26 35 14 19 1014.6 1014.2 0.0
27/10:30pm 15.9 11.2 9.1 64 3.5 SW 24 35 13 19 1014.7 1014.3 0.0
27/10:00pm 16.1 11.4 9.1 63 3.6 SW 24 32 13 17 1014.7 1014.3 0.0
27/09:30pm 16.0 11.5 8.7 62 3.7 SW 22 32 12 17 1014.9 1014.5 0.0
27/09:00pm 16.3 11.7 8.3 59 4.1 SW 22 30 12 16 1014.9 1014.5 0.0
27/08:30pm 16.5 12.2 8.0 57 4.3 SW 20 32 11 17 1015.0 1014.6 0.0
27/08:00pm 17.2 13.2 8.4 56 4.5 SW 19 20 10 11 1015.0 1014.6 0.0
27/07:30pm 17.1 13.9 8.5 57 4.4 SW 15 19 8 10 1014.9 1014.5 0.0
27/07:00pm 18.3 15.6 8.8 54 5.0 SSE 13 17 7 9 1014.3 1013.9 0.0
27/06:30pm 18.1 15.3 8.7 54 4.9 SSE 13 19 7 10 1014.3 1013.9 0.0
27/06:00pm 18.4 14.3 8.7 53 5.1 SE 20 26 11 14 1013.8 1013.4 0.0
27/05:30pm 18.3 14.5 7.7 50 5.4 SSW 17 20 9 11 1013.5 1013.1 0.0
27/05:00pm 18.7 15.3 7.5 48 5.7 SW 15 19 8 10 1013.2 1012.8 0.0
27/04:30pm 19.5 15.6 6.9 44 6.4 SW 17 26 9 14 1012.5 1012.1 0.0
27/04:00pm 19.8 15.3 6.9 43 6.6 SW 20 30 11 16 1012.3 1011.9 0.0
27/03:30pm 19.9 14.6 7.0 43 6.6 SW 24 33 13 18 1012.2 1011.8 0.0
27/03:00pm 20.5 16.1 7.2 42 6.8 SW 20 28 11 15 1012.1 1011.7 0.0
27/02:30pm 20.1 15.5 5.7 39 7.2 SSW 19 32 10 17 1012.0 1011.6 0.0
27/02:00pm 20.0 15.3 5.3 38 7.2 SW 19 32 10 17 1012.0 1011.6 0.0
27/01:30pm 20.4 15.8 5.6 38 7.4 SSW 19 28 10 15 1012.1 1011.7 0.0
27/01:00pm 19.9 15.2 5.9 40 7.0 SW 20 32 11 17 1012.4 1012.0 0.0
27/12:30pm 19.9 16.1 7.6 45 6.3 WSW 17 30 9 16 1012.7 1012.2 0.0
27/12:00pm 19.6 15.4 7.4 45 6.2 SW 19 28 10 15 1013.1 1012.7 0.0
27/11:30am 19.7 15.8 7.1 44 6.4 SW 17 28 9 15 1013.6 1013.2 0.0
27/11:00am 19.2 14.9 7.0 45 6.2 SW 19 28 10 15 1013.7 1013.3 0.0
27/10:30am 19.6 15.8 7.7 46 6.1 SW 17 24 9 13 1014.0 1013.6 0.0
27/10:00am 18.9 15.7 9.9 56 4.8 SW 17 24 9 13 1014.1 1013.7 0.0
27/09:30am 17.5 13.3 8.1 54 4.8 WSW 20 26 11 14 1014.1 1013.7 0.0
27/09:00am 17.4 14.4 9.1 58 4.3 WSW 15 24 8 13 1014.1 1013.7 0.2
27/08:30am 16.5 11.5 8.0 57 4.3 WSW 24 33 13 18 1013.8 1013.4 0.2
27/08:00am 16.4 11.9 8.6 60 4.0 W 22 32 12 17 1013.3 1012.9 0.2
27/07:30am 16.3 12.8 8.8 61 3.9 WSW 17 24 9 13 1013.4 1013.0 0.2
27/07:00am 15.7 11.7 9.1 65 3.4 WSW 20 24 11 13 1013.1 1012.7 0.2
27/06:30am 15.3 11.7 9.7 69 2.9 WSW 19 24 10 13 1012.8 1012.3 0.2
27/06:00am 15.5 12.6 9.6 68 3.1 WSW 15 19 8 10 1012.7 1012.2 0.2
27/05:30am 15.9 12.3 10.0 68 3.1 SW 19 22 10 12 1012.3 1011.9 0.2
27/05:00am 16.2 13.0 9.8 66 3.4 SW 17 20 9 11 1012.2 1011.8 0.2
27/04:30am 16.7 12.6 10.1 65 3.5 SW 22 32 12 17 1011.8 1011.4 0.2
27/04:00am 17.2 13.5 10.3 64 3.7 SW 20 30 11 16 1011.8 1011.4 0.2
27/03:30am 17.7 13.0 10.8 64 3.7 SW 26 39 14 21 1011.5 1011.1 0.2
27/03:00am 18.1 14.2 10.7 62 4.0 SW 22 35 12 19 1011.5 1011.1 0.2
27/02:30am 18.5 15.1 11.1 62 4.0 SW 20 30 11 16 1011.4 1011.0 0.2
27/02:00am 19.1 15.7 11.2 60 4.3 WSW 20 30 11 16 1011.7 1011.3 0.2
27/01:30am 19.8 16.0 11.0 57 4.8 WSW 22 32 12 17 1011.9 1011.5 0.2
27/01:00am 20.0 15.5 11.5 58 4.7 WSW 26 37 14 20 1011.7 1011.3 0.2
27/12:30am 20.2 16.6 13.2 64 4.0 SW 24 33 13 18 1011.8 1011.4 0.2
27/12:00am 20.6 17.2 13.8 65 3.9 WSW 24 37 13 20 1011.8 1011.4 0.2
 
Date/Time
EST
Temp
°C
App
Temp
°C
Dew
Point
°C
Rel
Hum
%
Delta-T
°C
Wind Press
QNH
hPa
Press
MSL
hPa
Rain since
9am
mm
Dir  Spd
km/h
Gust
km/h
Spd
kts
Gust
kts
26/11:30pm 20.7 18.6 14.8 69 3.5 SW 19 28 10 15 1011.7 1011.3 0.2
26/11:00pm 21.1 18.6 15.2 69 3.5 SW 22 33 12 18 1011.5 1011.1 0.2
26/10:30pm 21.5 20.1 16.9 75 2.8 SW 20 33 11 18 1011.5 1011.1 0.2
26/10:00pm 22.4 21.4 18.8 80 2.3 WSW 22 32 12 17 1011.6 1011.2 0.2
26/09:30pm 22.6 23.1 20.9 90 1.1 W 19 24 10 13 1011.5 1011.1 0.2
26/09:00pm 22.8 23.3 20.9 89 1.2 WNW 19 26 10 14 1011.2 1010.8 0.2
26/08:30pm 23.1 24.3 22.1 94 0.7 NW 19 26 10 14 1010.9 1010.5 0.0
26/08:00pm 23.4 23.6 22.0 92 0.9 NW 24 32 13 17 1010.8 1010.4 0.0
26/07:30pm 23.4 24.3 22.0 92 0.9 NNW 20 32 11 17 1010.5 1010.1 0.0
26/07:00pm 23.6 22.6 21.3 87 1.5 NW 28 43 15 23 1010.2 1009.8 0.0
26/06:30pm 23.4 21.9 21.8 91 1.1 NNW 32 41 17 22 1009.7 1009.3 0.0
26/06:00pm 23.3 22.5 21.6 90 1.1 NNW 28 37 15 20 1009.6 1009.2 0.0
26/05:30pm 23.1 21.5 21.5 91 1.1 NNW 32 41 17 22 1009.1 1008.7 0.0
26/05:00pm 23.0 21.2 21.5 91 1.0 NNW 33 46 18 25 1009.1 1008.7 0.0
26/04:30pm 23.2 21.6 21.5 90 1.1 N 32 41 17 22 1008.9 1008.5 0.0
26/04:00pm 23.3 22.9 21.0 87 1.5 N 24 35 13 19 1008.8 1008.4 0.0
26/03:30pm 23.4 21.9 20.9 86 1.6 N 30 35 16 19 1009.7 1009.3 0.0
26/03:00pm 23.6 22.5 20.3 82 2.1 N 26 35 14 19 1009.6 1009.2 0.0
26/02:30pm 23.2 21.9 20.7 86 1.6 N 28 37 15 20 1009.7 1009.3 0.0
26/02:00pm 23.0 22.0 20.5 86 1.6 N 26 35 14 19 1009.9 1009.5 0.0
26/01:30pm 23.1 21.3 20.4 85 1.8 N 30 35 16 19 1010.2 1009.8 0.0
26/01:00pm 22.7 21.6 20.2 86 1.6 NNW 26 33 14 18 1010.9 1010.5 0.0
26/12:30pm 22.9 20.6 20.1 84 1.8 NNW 32 37 17 20 1011.1 1010.7 0.0
26/12:00pm 24.5 24.4 20.8 80 2.4 NNW 22 32 12 17 1011.8 1011.4 0.0
26/11:30am 23.3 22.4 19.9 81 2.2 NNW 24 33 13 18 1012.3 1011.9 0.0
26/11:00am 23.7 21.5 19.6 78 2.6 NW 30 37 16 20 1013.1 1012.7 0.0
26/10:30am 23.1 20.9 19.5 80 2.3 NW 30 39 16 21 1013.5 1013.1 0.0
26/10:00am 23.3 21.6 19.9 81 2.2 NW 28 37 15 20 1013.8 1013.4 0.0
26/09:30am 22.9 22.4 19.9 83 1.9 NW 22 32 12 17 1014.1 1013.7 0.0
26/09:00am 22.4 20.9 19.4 83 1.9 NW 26 37 14 20 1013.9 1013.5 0.0
26/08:30am 22.6 21.7 19.8 84 1.8 NW 24 35 13 19 1014.3 1013.9 0.0
26/08:00am 22.3 20.8 19.5 84 1.8 NW 26 35 14 19 1014.3 1013.9 0.0
26/07:30am 22.0 21.3 19.4 85 1.7 NW 22 32 12 17 1014.2 1013.8 0.0
26/07:00am 22.1 20.4 19.8 87 1.5 NW 28 35 15 19 1014.0 1013.6 0.0
26/06:30am 21.8 20.8 19.7 88 1.3 NW 24 30 13 16 1014.1 1013.7 0.0
26/06:00am 21.6 20.1 19.5 88 1.3 NW 26 33 14 18 1013.8 1013.4 0.0
26/05:30am 21.6 19.6 19.2 86 1.5 NW 28 35 15 19 1013.9 1013.5 0.0
26/05:00am 21.5 19.9 19.1 86 1.5 NW 26 33 14 18 1013.7 1013.3 0.0
26/04:30am 21.4 20.1 19.0 86 1.5 NW 24 32 13 17 1013.6 1013.2 0.0
26/04:00am 21.2 20.6 18.8 86 1.5 NW 20 28 11 15 1013.5 1013.1 0.0
26/03:30am 21.2 20.6 18.8 86 1.5 NW 20 30 11 16 1013.6 1013.2 0.0
26/03:00am 21.5 21.2 19.6 89 1.2 NW 20 26 11 14 1013.5 1013.1 0.0
26/02:30am 21.9 21.2 19.6 87 1.5 NW 22 28 12 15 1013.5 1013.1 0.0
26/02:00am 22.3 21.5 19.3 83 1.9 NNW 22 32 12 17 1013.7 1013.3 0.0
26/01:30am 22.3 20.2 18.1 77 2.6 NNW 26 35 14 19 1014.0 1013.6 0.0
26/01:00am 22.4 19.6 18.2 77 2.6 N 30 37 16 20 1014.1 1013.7 0.0
26/12:30am 22.4 20.0 18.2 77 2.6 N 28 35 15 19 1014.4 1014.0 0.0
26/12:00am 22.3 20.0 17.7 75 2.9 N 26 35 14 19 1014.7 1014.3 0.0
 
Date/Time
EST
Temp
°C
App
Temp
°C
Dew
Point
°C
Rel
Hum
%
Delta-T
°C
Wind Press
QNH
hPa
Press
MSL
hPa
Rain since
9am
mm
Dir  Spd
km/h
Gust
km/h
Spd
kts
Gust
kts
25/11:30pm 22.2 20.2 17.3 74 3.0 N 24 30 13 16 1015.1 1014.7 0.0
25/11:00pm 22.2 20.3 17.6 75 2.9 N 24 30 13 16 1015.5 1015.1 0.0
25/10:30pm 22.1 20.5 17.5 75 2.9 N 22 28 12 15 1015.8 1015.4 0.0
25/10:00pm 22.0 20.7 17.2 74 3.0 N 20 26 11 14 1016.1 1015.7 0.0
25/09:30pm 22.0 20.7 16.9 73 3.1 N 19 24 10 13 1016.2 1015.8 0.0
25/09:00pm 21.9 21.3 17.5 76 2.7 N 17 22 9 12 1016.3 1015.9 0.0
25/08:30pm 21.9 20.9 17.5 76 2.7 NNE 19 22 10 12 1016.3 1015.9 0.0
25/08:00pm 22.0 21.5 17.8 77 2.6 NNE 17 24 9 13 1016.2 1015.8 0.0
25/07:30pm 21.9 21.3 17.5 76 2.7 NNE 17 22 9 12 1016.0 1015.6 0.0
25/07:00pm 21.8 21.5 17.4 76 2.7 NNE 15 20 8 11 1016.1 1015.7 0.0
25/06:30pm 21.7 21.2 16.9 74 2.9 N 15 20 8 11 1015.9 1015.5 0.0

Latest Capital City Observations: Canberra | Sydney | Melbourne | Brisbane | Adelaide | Perth | Hobart | Darwin

Other Formats:

Comma delimited format used in spreadsheet applications
http://www.bom.gov.au/fwo/IDQ60901/IDQ60901.94594.axf

JavaScript Object Notation format (JSON) in row-major order
http://www.bom.gov.au/fwo/IDQ60901/IDQ60901.94594.json